createdAt,value
2023-03-26T00:00:55.395Z,21.42
2023-03-26T00:03:22.717Z,21.45
2023-03-26T00:05:50.773Z,21.47
2023-03-26T00:08:21.726Z,21.45
2023-03-26T00:10:48.752Z,21.40
2023-03-26T00:13:18.594Z,21.32
2023-03-26T00:15:45.983Z,21.30
2023-03-26T00:18:13.167Z,21.32
2023-03-26T00:20:45.060Z,21.33
2023-03-26T00:23:13.745Z,21.35
2023-03-26T00:25:42.958Z,21.32
2023-03-26T00:28:12.984Z,21.26
2023-03-26T00:30:41.331Z,21.20
2023-03-26T00:33:11.342Z,21.19
2023-03-26T00:35:38.349Z,21.21
2023-03-26T00:38:05.365Z,21.23
2023-03-26T00:40:36.303Z,21.21
2023-03-26T00:43:18.316Z,21.15
2023-03-26T00:45:56.639Z,21.08
2023-03-26T00:48:37.888Z,20.99
2023-03-26T00:51:12.127Z,20.96
2023-03-26T00:53:40.826Z,20.95
2023-03-26T00:56:12.062Z,20.93
2023-03-26T00:58:39.833Z,20.94
2023-03-26T01:01:15.021Z,20.93
2023-03-26T01:03:53.046Z,20.90
2023-03-26T01:06:32.237Z,20.88
2023-03-26T01:09:03.606Z,20.86
2023-03-26T01:11:31.685Z,20.87
2023-03-26T01:14:06.707Z,20.89
2023-03-26T01:16:41.341Z,20.93
2023-03-26T01:19:12.339Z,20.95
2023-03-26T01:21:39.991Z,20.89
2023-03-26T01:24:08.122Z,20.79
2023-03-26T01:26:47.077Z,20.67
2023-03-26T01:29:27.609Z,20.53
2023-03-26T01:32:08.915Z,20.40
2023-03-26T01:35:00.864Z,20.30
2023-03-26T01:38:09.856Z,20.22
2023-03-26T01:40:46.137Z,20.17
2023-03-26T01:43:18.015Z,20.07
2023-03-26T01:45:45.087Z,19.95
2023-03-26T01:48:11.961Z,19.86
2023-03-26T01:50:38.853Z,19.77
2023-03-26T01:53:05.734Z,19.72
2023-03-26T01:55:41.116Z,19.71
2023-03-26T01:58:22.993Z,19.69
2023-03-26T02:00:56.940Z,19.70
2023-03-26T02:03:27.253Z,19.69
2023-03-26T02:06:15.121Z,19.70
2023-03-26T02:08:52.179Z,19.73
2023-03-26T02:11:19.970Z,19.77
2023-03-26T02:13:47.781Z,19.79
2023-03-26T02:16:15.827Z,19.79
2023-03-26T02:18:50.727Z,19.70
2023-03-26T02:21:22.091Z,19.66
2023-03-26T02:23:50.171Z,19.65
2023-03-26T02:26:18.562Z,19.63
2023-03-26T02:28:56.133Z,19.62
2023-03-26T02:31:30.692Z,19.61
2023-03-26T02:33:57.511Z,19.59
2023-03-26T02:36:26.822Z,19.54
2023-03-26T02:38:57.276Z,19.48
2023-03-26T02:41:28.636Z,19.44
2023-03-26T02:43:58.765Z,19.47
2023-03-26T02:46:45.365Z,19.50
2023-03-26T02:49:38.300Z,19.47
2023-03-26T02:52:05.876Z,19.44
2023-03-26T02:54:36.724Z,19.39
2023-03-26T02:57:35.640Z,19.33
2023-03-26T03:00:22.051Z,19.30
2023-03-26T03:03:16.776Z,19.26
2023-03-26T03:06:01.929Z,19.15
2023-03-26T03:08:33.556Z,19.03
2023-03-26T03:11:24.129Z,18.93
2023-03-26T03:13:51.874Z,18.84
2023-03-26T03:16:22.242Z,18.83
2023-03-26T03:18:53.667Z,18.86
2023-03-26T03:21:23.474Z,18.82
2023-03-26T03:23:50.639Z,18.75
2023-03-26T03:26:21.068Z,18.68
2023-03-26T03:28:56.846Z,18.65
2023-03-26T03:31:25.758Z,18.67
2023-03-26T03:33:53.372Z,18.74
2023-03-26T03:36:27.202Z,18.84
2023-03-26T03:39:01.810Z,18.90
2023-03-26T03:41:29.158Z,18.98
2023-03-26T03:43:58.734Z,19.02
2023-03-26T03:46:27.906Z,19.07
2023-03-26T03:48:57.736Z,19.08
2023-03-26T03:51:31.676Z,19.04
2023-03-26T03:54:03.187Z,18.98
2023-03-26T03:56:55.281Z,18.95
2023-03-26T03:59:31.209Z,18.96
2023-03-26T04:01:58.658Z,18.96
2023-03-26T04:04:49.531Z,18.92
2023-03-26T04:07:18.933Z,18.87
2023-03-26T04:10:04.835Z,18.79
2023-03-26T04:12:52.689Z,18.76
2023-03-26T04:15:24.089Z,18.78
2023-03-26T04:17:51.756Z,18.82
2023-03-26T04:21:51.683Z,17.69
2023-03-26T04:24:22.641Z,18.62
2023-03-26T04:27:21.624Z,18.73
2023-03-26T04:29:50.098Z,18.74
2023-03-26T04:32:34.458Z,18.72
2023-03-26T04:35:04.164Z,18.71
2023-03-26T04:37:40.169Z,18.71
2023-03-26T04:40:30.789Z,18.69
2023-03-26T04:43:24.401Z,18.65
2023-03-26T04:46:11.780Z,18.64
2023-03-26T04:48:48.541Z,18.64
2023-03-26T04:51:24.151Z,18.64
2023-03-26T04:54:00.014Z,18.63
2023-03-26T04:56:39.191Z,18.67
2023-03-26T04:59:26.448Z,18.79
2023-03-26T05:01:57.321Z,18.98
2023-03-26T05:04:27.038Z,19.21
2023-03-26T05:06:58.127Z,19.44
2023-03-26T05:09:34.420Z,19.62
2023-03-26T05:12:15.034Z,19.71
2023-03-26T05:15:04.468Z,19.69
2023-03-26T05:17:56.040Z,19.62
2023-03-26T05:20:31.670Z,19.63
2023-03-26T05:23:07.627Z,19.83
2023-03-26T05:25:43.205Z,20.20
2023-03-26T05:28:19.511Z,20.57
2023-03-26T05:31:02.952Z,20.91
2023-03-26T05:33:35.289Z,21.20
2023-03-26T05:36:13.564Z,21.49
2023-03-26T05:38:49.742Z,21.76
2023-03-26T05:41:38.329Z,22.05
2023-03-26T05:44:06.987Z,22.26
2023-03-26T05:46:36.191Z,22.48
2023-03-26T05:49:05.045Z,22.67
2023-03-26T05:51:35.328Z,22.87
2023-03-26T05:54:23.215Z,23.07
2023-03-26T05:57:10.682Z,23.29
2023-03-26T06:00:04.960Z,23.57
2023-03-26T06:02:48.329Z,23.83
2023-03-26T06:05:37.709Z,24.10
2023-03-26T06:08:22.009Z,24.30
2023-03-26T06:10:58.975Z,24.53
2023-03-26T06:13:28.464Z,24.83
2023-03-26T06:15:58.817Z,25.11
2023-03-26T06:18:36.405Z,25.38
2023-03-26T06:21:34.089Z,25.75
2023-03-26T06:24:27.333Z,25.91
2023-03-26T06:27:14.595Z,26.02
2023-03-26T06:30:16.392Z,26.12
2023-03-26T06:33:02.430Z,26.26
2023-03-26T06:35:36.970Z,26.40
2023-03-26T06:38:07.748Z,26.47
2023-03-26T06:40:37.315Z,26.51
2023-03-26T06:43:22.747Z,26.60
2023-03-26T06:46:25.972Z,26.68
2023-03-26T06:49:13.270Z,26.72
2023-03-26T06:52:03.019Z,26.74
2023-03-26T06:54:57.779Z,26.74
2023-03-26T06:57:49.474Z,26.79
2023-03-26T07:00:42.562Z,26.79
2023-03-26T07:03:30.302Z,26.73
2023-03-26T07:06:19.694Z,26.67
2023-03-26T07:09:14.539Z,26.58
2023-03-26T07:12:01.465Z,26.56
2023-03-26T07:15:01.230Z,26.40
2023-03-26T07:17:38.761Z,26.17
2023-03-26T07:20:20.887Z,26.02
2023-03-26T07:22:49.743Z,25.86
2023-03-26T07:25:33.104Z,25.71
2023-03-26T07:28:27.424Z,25.53
2023-03-26T07:31:27.568Z,25.39
2023-03-26T07:34:22.645Z,25.34
2023-03-26T07:37:22.344Z,25.44
2023-03-26T07:40:28.843Z,25.57
2023-03-26T07:43:28.112Z,25.67
2023-03-26T07:46:29.306Z,25.75
2023-03-26T07:49:30.512Z,25.78
2023-03-26T07:52:15.405Z,25.80
2023-03-26T07:54:54.311Z,25.76
2023-03-26T07:57:59.544Z,25.62
2023-03-26T08:00:54.547Z,25.42
2023-03-26T08:03:52.101Z,25.27
2023-03-26T08:06:35.697Z,25.16
2023-03-26T08:09:34.689Z,25.09
2023-03-26T08:12:35.083Z,24.97
2023-03-26T08:15:06.548Z,24.90
2023-03-26T08:18:14.346Z,24.83
2023-03-26T08:20:55.229Z,24.74
2023-03-26T08:23:36.195Z,24.71
2023-03-26T08:26:28.119Z,24.75
2023-03-26T08:29:16.193Z,24.71
2023-03-26T08:31:45.568Z,24.61
2023-03-26T08:34:13.956Z,24.51
2023-03-26T08:36:43.104Z,24.37
2023-03-26T08:39:11.905Z,24.28
2023-03-26T08:41:55.370Z,24.27
2023-03-26T08:44:36.656Z,24.30
2023-03-26T08:47:55.888Z,24.29
2023-03-26T08:50:43.160Z,24.22
2023-03-26T08:53:39.280Z,24.21
2023-03-26T08:56:32.880Z,24.16
2023-03-26T08:59:39.518Z,24.07
2023-03-26T09:02:28.309Z,24.03
2023-03-26T09:05:21.641Z,24.02
2023-03-26T09:08:17.902Z,24.06
2023-03-26T09:11:06.658Z,24.08
2023-03-26T09:13:52.540Z,24.03
2023-03-26T09:16:33.153Z,23.85
2023-03-26T09:19:10.704Z,23.67
2023-03-26T09:22:00.682Z,23.57
2023-03-26T09:24:41.256Z,23.50
2023-03-26T09:27:15.912Z,23.40
2023-03-26T09:29:54.616Z,23.32
2023-03-26T09:33:00.626Z,23.24
2023-03-26T09:35:52.893Z,23.19
2023-03-26T09:38:33.892Z,23.08
2023-03-26T09:41:08.647Z,22.97
2023-03-26T09:43:43.777Z,22.89
2023-03-26T09:46:34.772Z,22.79
2023-03-26T09:49:09.602Z,22.74
2023-03-26T09:52:08.611Z,22.70
2023-03-26T09:54:44.824Z,22.62
2023-03-26T09:57:58.475Z,22.47
2023-03-26T10:00:49.947Z,22.38
2023-03-26T10:03:26.390Z,22.37
2023-03-26T10:06:12.192Z,22.39
2023-03-26T10:08:49.926Z,22.40
2023-03-26T10:19:00.506Z,22.35
2023-03-26T10:22:13.116Z,22.38
2023-03-26T10:25:01.528Z,22.39
2023-03-26T10:28:09.166Z,22.39
2023-03-26T10:31:16.589Z,22.41
2023-03-26T10:34:03.401Z,22.43
2023-03-26T10:36:41.476Z,22.43
2023-03-26T10:39:54.706Z,22.46
2023-03-26T10:42:22.852Z,22.46
2023-03-26T10:45:02.628Z,22.49
2023-03-26T10:47:54.435Z,22.54
2023-03-26T10:50:28.198Z,22.60
2023-03-26T10:53:12.942Z,22.64
2023-03-26T10:55:45.778Z,22.68
2023-03-26T10:58:29.677Z,22.66
2023-03-26T11:01:48.593Z,22.63
2023-03-26T11:04:35.954Z,22.67
2023-03-26T11:07:10.944Z,22.73
2023-03-26T11:09:48.245Z,22.77
2023-03-26T11:12:27.177Z,22.81
2023-03-26T11:15:16.092Z,22.83
2023-03-26T11:18:27.622Z,22.86
2023-03-26T11:21:30.861Z,22.88
2023-03-26T11:24:18.825Z,22.86
2023-03-26T11:26:55.991Z,22.85
2023-03-26T11:29:39.987Z,22.86
2023-03-26T11:32:23.297Z,22.91
2023-03-26T11:35:40.701Z,22.94
2023-03-26T11:38:24.030Z,22.95
2023-03-26T11:40:57.220Z,23.00
2023-03-26T11:43:49.723Z,23.05
2023-03-26T11:46:21.108Z,23.07
2023-03-26T11:48:59.432Z,23.09
2023-03-26T11:51:31.678Z,23.11
2023-03-26T11:54:01.532Z,23.16
2023-03-26T11:57:05.497Z,23.23
2023-03-26T11:59:55.494Z,23.25
2023-03-26T12:02:38.419Z,23.22
2023-03-26T12:05:21.342Z,23.13
2023-03-26T12:08:00.535Z,23.04
2023-03-26T12:10:38.144Z,22.87
2023-03-26T12:13:21.832Z,22.70
2023-03-26T12:15:51.135Z,22.60
2023-03-26T12:18:26.369Z,22.54
2023-03-26T12:21:18.211Z,22.50
2023-03-26T12:24:01.975Z,22.51
2023-03-26T12:26:40.792Z,22.54
2023-03-26T12:29:19.410Z,22.62
2023-03-26T12:32:09.398Z,22.70
2023-03-26T12:34:39.716Z,22.81
2023-03-26T12:37:16.406Z,22.93
2023-03-26T12:40:08.660Z,23.05
2023-03-26T12:44:51.110Z,23.12
2023-03-26T12:45:37.404Z,23.18
2023-03-26T12:48:07.262Z,23.21
2023-03-26T12:50:51.590Z,23.23
2023-03-26T12:53:29.236Z,23.24
2023-03-26T12:56:21.941Z,23.26
2023-03-26T12:59:05.578Z,23.24
2023-03-26T13:01:59.420Z,23.17
2023-03-26T13:05:05.741Z,23.16
2023-03-26T13:08:00.729Z,23.16
2023-03-26T13:10:43.655Z,23.18
2023-03-26T13:13:52.815Z,23.21
2023-03-26T13:16:45.399Z,23.26
2023-03-26T13:19:29.244Z,23.28
2023-03-26T13:22:30.244Z,23.28
2023-03-26T13:25:23.161Z,23.31
2023-03-26T13:28:21.178Z,23.36
2023-03-26T13:31:12.009Z,23.42
2023-03-26T13:34:05.470Z,23.44
2023-03-26T13:36:51.261Z,23.44
2023-03-26T13:39:25.341Z,23.44
2023-03-26T13:42:26.854Z,23.41
2023-03-26T13:45:07.779Z,23.35
2023-03-26T13:47:38.625Z,23.34
2023-03-26T13:50:10.063Z,23.34
2023-03-26T13:52:53.174Z,23.32
2023-03-26T13:55:34.311Z,23.24
2023-03-26T13:58:13.823Z,23.18
2023-03-26T14:00:59.226Z,23.14
2023-03-26T14:03:35.872Z,23.10
2023-03-26T14:06:24.554Z,22.97
2023-03-26T14:09:05.014Z,22.77
2023-03-26T14:12:02.046Z,22.46
2023-03-26T14:14:48.925Z,22.11
2023-03-26T14:17:38.727Z,21.93
2023-03-26T14:20:28.935Z,21.87
2023-03-26T14:23:12.564Z,21.84
2023-03-26T14:25:47.394Z,21.82
2023-03-26T14:28:21.865Z,21.80
2023-03-26T14:31:04.255Z,21.77
2023-03-26T14:33:38.803Z,21.75
2023-03-26T14:36:14.811Z,21.74
2023-03-26T14:39:06.581Z,21.74
2023-03-26T14:41:59.398Z,21.72
2023-03-26T14:44:49.108Z,21.70
2023-03-26T14:47:19.200Z,21.71
2023-03-26T14:50:03.653Z,21.71
2023-03-26T14:52:51.968Z,21.70
2023-03-26T14:55:35.587Z,21.72
2023-03-26T14:58:30.603Z,21.73
2023-03-26T15:01:19.022Z,21.73
2023-03-26T15:04:06.545Z,21.72
2023-03-26T15:06:47.352Z,21.68
2023-03-26T15:09:46.494Z,21.66
2023-03-26T15:12:50.149Z,21.62
2023-03-26T15:15:37.334Z,21.58
2023-03-26T15:18:41.548Z,21.54
2023-03-26T15:21:45.559Z,21.48
2023-03-26T15:24:51.417Z,21.44
2023-03-26T15:27:43.457Z,21.41
2023-03-26T15:30:33.357Z,21.37
2023-03-26T15:33:09.101Z,21.35
2023-03-26T15:35:38.108Z,21.33
2023-03-26T15:38:28.457Z,21.29
2023-03-26T15:41:11.912Z,21.25
2023-03-26T15:44:24.231Z,21.21
2023-03-26T15:47:44.851Z,21.19
2023-03-26T15:50:29.800Z,21.14
2023-03-26T15:53:13.028Z,21.05
2023-03-26T15:56:07.630Z,21.02
2023-03-26T15:58:59.778Z,20.97
2023-03-26T16:02:03.993Z,20.92
2023-03-26T16:04:50.043Z,20.86
2023-03-26T16:07:54.305Z,20.82
2023-03-26T16:10:46.761Z,20.76
2023-03-26T16:13:50.827Z,20.71
2023-03-26T16:16:24.176Z,20.68
2023-03-26T16:19:19.297Z,20.65
2023-03-26T16:22:01.167Z,20.60
2023-03-26T16:24:32.829Z,20.56
2023-03-26T16:27:15.654Z,20.53
2023-03-26T16:30:11.316Z,20.49
2023-03-26T16:33:01.930Z,20.44
2023-03-26T16:35:39.880Z,20.37
2023-03-26T16:39:45.628Z,19.08
2023-03-26T16:42:49.762Z,20.03
2023-03-26T16:45:37.372Z,20.08
2023-03-26T16:48:05.695Z,19.99
2023-03-26T16:50:44.725Z,19.93
2023-03-26T16:53:24.550Z,19.92
2023-03-26T16:56:22.596Z,19.91
2023-03-26T16:59:01.918Z,19.91
2023-03-26T17:01:47.045Z,19.91
2023-03-26T17:04:20.669Z,19.93
2023-03-26T17:07:08.871Z,19.93
2023-03-26T17:09:44.926Z,19.94
2023-03-26T17:12:35.230Z,19.93
2023-03-26T17:15:20.424Z,19.94
2023-03-26T17:18:16.230Z,19.91
2023-03-26T17:21:29.820Z,19.88
2023-03-26T17:24:43.608Z,19.88
2023-03-26T17:27:34.239Z,19.84
2023-03-26T17:30:28.902Z,19.81
2023-03-26T17:33:06.081Z,19.76
2023-03-26T17:35:36.248Z,19.70
2023-03-26T17:38:16.947Z,19.65
2023-03-26T17:40:45.434Z,19.61
2023-03-26T17:43:34.384Z,19.57
2023-03-26T17:46:04.715Z,19.51
2023-03-26T17:48:35.657Z,19.44
2023-03-26T17:51:30.377Z,19.38
2023-03-26T17:53:59.493Z,19.32
2023-03-26T17:56:29.345Z,19.30
2023-03-26T17:59:11.495Z,19.29
2023-03-26T18:01:42.379Z,19.28
2023-03-26T18:04:19.949Z,19.23
2023-03-26T18:06:55.605Z,19.17
2023-03-26T18:09:37.287Z,19.11
2023-03-26T18:12:24.819Z,19.07
2023-03-26T18:15:32.116Z,19.03
2023-03-26T18:18:18.326Z,19.00
2023-03-26T18:20:50.180Z,18.96
2023-03-26T18:23:27.173Z,18.94
2023-03-26T18:25:58.576Z,18.93
2023-03-26T18:28:35.894Z,18.89
2023-03-26T18:31:19.062Z,18.85
2023-03-26T18:33:49.555Z,18.79
2023-03-26T18:36:18.984Z,18.74
2023-03-26T18:38:49.307Z,18.71
2023-03-26T18:41:27.549Z,18.76
2023-03-26T18:43:55.767Z,18.89
2023-03-26T18:46:25.018Z,19.02
2023-03-26T18:48:55.914Z,19.14
2023-03-26T18:51:25.378Z,19.23
2023-03-26T18:54:03.488Z,19.40
2023-03-26T18:56:35.458Z,19.59
2023-03-26T18:59:28.370Z,19.76
2023-03-26T19:01:57.951Z,19.94
2023-03-26T19:04:26.773Z,20.09
2023-03-26T19:06:55.468Z,20.25
2023-03-26T19:09:31.724Z,20.37
2023-03-26T19:12:06.231Z,20.49
2023-03-26T19:14:56.141Z,20.57
2023-03-26T19:17:27.162Z,20.64
2023-03-26T19:19:55.855Z,20.66
2023-03-26T19:22:25.972Z,20.63
2023-03-26T19:24:57.945Z,20.62
2023-03-26T19:27:26.609Z,20.60
2023-03-26T19:29:58.062Z,20.59
2023-03-26T19:32:34.663Z,20.62
2023-03-26T19:35:04.707Z,20.63
2023-03-26T19:37:33.870Z,20.65
2023-03-26T19:40:07.361Z,20.61
2023-03-26T19:42:43.784Z,20.51
2023-03-26T19:45:19.149Z,20.36
2023-03-26T19:48:00.100Z,20.20
2023-03-26T19:50:37.451Z,20.02
2023-03-26T19:53:19.159Z,19.85
2023-03-26T19:55:58.029Z,19.67
2023-03-26T19:58:26.714Z,19.51
2023-03-26T20:00:56.708Z,19.37
2023-03-26T20:03:40.615Z,19.23
2023-03-26T20:06:13.068Z,19.06
2023-03-26T20:08:47.462Z,18.93
2023-03-26T20:11:19.912Z,18.81
2023-03-26T20:13:54.097Z,18.69
2023-03-26T20:16:31.819Z,18.59
2023-03-26T20:19:04.742Z,18.48
2023-03-26T20:21:41.535Z,18.39
2023-03-26T20:24:17.017Z,18.27
2023-03-26T20:26:45.932Z,18.17
2023-03-26T20:29:14.948Z,18.08
2023-03-26T20:31:43.342Z,18.02
2023-03-26T20:34:19.875Z,17.95
2023-03-26T20:36:55.624Z,17.89
2023-03-26T20:39:25.470Z,17.79
2023-03-26T20:41:55.357Z,17.73
2023-03-26T20:44:23.727Z,17.66
2023-03-26T20:46:52.643Z,17.60
2023-03-26T20:49:22.354Z,17.53
2023-03-26T20:51:51.257Z,17.46
2023-03-26T20:54:21.912Z,17.40
2023-03-26T20:56:51.398Z,17.35
2023-03-26T20:59:29.142Z,17.32
2023-03-26T21:01:58.090Z,17.32
2023-03-26T21:04:26.718Z,17.34
2023-03-26T21:06:57.878Z,17.33
2023-03-26T21:09:35.734Z,17.31
2023-03-26T21:12:16.914Z,17.28
2023-03-26T21:14:55.809Z,17.22
2023-03-26T21:17:25.260Z,17.16
2023-03-26T21:19:54.080Z,17.11
2023-03-26T21:22:53.788Z,17.06
2023-03-26T21:25:32.316Z,16.99
2023-03-26T21:28:09.113Z,16.93
2023-03-26T21:30:40.101Z,16.90
2023-03-26T21:33:09.032Z,16.87
2023-03-26T21:35:40.843Z,16.83
2023-03-26T21:38:10.072Z,16.80
2023-03-26T21:40:42.285Z,16.81
2023-03-26T21:43:13.490Z,16.87
2023-03-26T21:45:43.196Z,16.91
2023-03-26T21:48:12.122Z,16.92
2023-03-26T21:50:41.014Z,16.93
2023-03-26T21:53:12.920Z,16.93
2023-03-26T21:55:58.968Z,16.93
2023-03-26T21:58:58.759Z,16.92
2023-03-26T22:01:31.802Z,16.89
2023-03-26T22:04:07.819Z,16.85
2023-03-26T22:07:01.338Z,16.82
2023-03-26T22:09:36.511Z,16.79
2023-03-26T22:12:05.930Z,16.76
2023-03-26T22:14:36.224Z,16.74
2023-03-26T22:17:05.057Z,16.72
2023-03-26T22:19:41.637Z,16.74
2023-03-26T22:22:10.922Z,16.79
2023-03-26T22:24:39.530Z,16.82
2023-03-26T22:27:08.588Z,16.83
2023-03-26T22:29:39.435Z,16.81
2023-03-26T22:32:08.235Z,16.79
2023-03-26T22:34:38.046Z,16.79
2023-03-26T22:37:06.550Z,16.77
2023-03-26T22:39:35.116Z,16.73
2023-03-26T22:42:05.235Z,16.68
2023-03-26T22:44:33.509Z,16.63
2023-03-26T22:47:01.804Z,16.61
2023-03-26T22:49:31.709Z,16.56
2023-03-26T22:52:07.346Z,16.51
2023-03-26T22:54:37.304Z,16.45
2023-03-26T22:57:05.624Z,16.42
2023-03-26T22:59:35.082Z,16.41
2023-03-26T23:02:03.346Z,16.42
2023-03-26T23:04:32.500Z,16.39
2023-03-26T23:07:01.064Z,16.36
2023-03-26T23:09:29.811Z,16.34
2023-03-26T23:12:00.759Z,16.31
2023-03-26T23:14:29.030Z,16.29
2023-03-26T23:16:57.474Z,16.26
2023-03-26T23:19:34.334Z,16.23
2023-03-26T23:22:02.974Z,16.20
2023-03-26T23:24:31.782Z,16.16
2023-03-26T23:27:01.170Z,16.12
2023-03-26T23:29:30.365Z,16.13
2023-03-26T23:32:00.588Z,16.17
2023-03-26T23:34:29.180Z,16.20
2023-03-26T23:36:58.250Z,16.21
2023-03-26T23:39:28.926Z,16.18
2023-03-26T23:41:57.291Z,16.15
2023-03-26T23:44:29.699Z,16.13
2023-03-26T23:47:00.707Z,16.11
2023-03-26T23:49:29.004Z,16.07
2023-03-26T23:51:57.377Z,16.04
2023-03-26T23:54:25.746Z,16.00
2023-03-26T23:56:57.914Z,15.98
2023-03-26T23:59:26.590Z,15.98
